Birmingham-Shuttlesworth International Airport


Codes: KBHM/BHM
Name: Birmingham-Shuttlesworth International Airport
City: Birmingham
Country: United States
Elevation: 650 ft.
Wikipedia:

Photos at Birmingham-Shuttlesworth International Airport


   Photos courtesy of SpottingLog. You can add your own sightings and photos by signing up for a free trial today.



No photos found.

Weather at Birmingham-Shuttlesworth International Airport


Time (UTC)DescriptionTempratureWindCloud coverageVisibilityPressureHumidity
21-Jun-2024 12:00Clear Sky20°C4 mph, E0%10000m1024hPa84%
21-Jun-2024 15:00Clear Sky23°C4 mph, E1%10000m1024hPa68%
21-Jun-2024 18:00Clear Sky29°C7 mph, E2%10000m1022hPa46%
21-Jun-2024 21:00Clear Sky35°C7 mph, NE4%10000m1018hPa25%
22-Jun-2024 00:00Scattered Clouds32°C7 mph, NE31%10000m1018hPa38%
22-Jun-2024 03:00Broken Clouds26°C4 mph, NE78%10000m1019hPa58%
22-Jun-2024 06:00Broken Clouds25°C4 mph, NE53%10000m1019hPa65%
22-Jun-2024 09:00Clear Sky23°C2 mph, E4%10000m1019hPa70%
22-Jun-2024 12:00Broken Clouds25°C2 mph, E52%10000m1019hPa58%
22-Jun-2024 15:00Broken Clouds33°C2 mph, SE70%10000m1019hPa33%
22-Jun-2024 18:00Broken Clouds36°C2 mph, SE76%10000m1016hPa26%
22-Jun-2024 21:00Overcast Clouds36°C2 mph, S100%10000m1014hPa26%
23-Jun-2024 00:00Overcast Clouds32°C2 mph, S100%10000m1014hPa37%
23-Jun-2024 03:00Overcast Clouds29°C0 mph, SE89%10000m1014hPa43%
23-Jun-2024 06:00Broken Clouds26°C2 mph, SW70%10000m1014hPa51%
23-Jun-2024 09:00Broken Clouds25°C0 mph, NE71%10000m1014hPa56%
23-Jun-2024 12:00Broken Clouds26°C2 mph, W60%10000m1015hPa54%
23-Jun-2024 15:00Scattered Clouds34°C4 mph, W49%10000m1015hPa35%
23-Jun-2024 18:00Scattered Clouds37°C9 mph, W29%10000m1013hPa25%
23-Jun-2024 21:00Clear Sky38°C9 mph, W4%10000m1011hPa21%
24-Jun-2024 00:00Clear Sky34°C7 mph, NW5%10000m1011hPa32%
24-Jun-2024 03:00Clear Sky28°C2 mph, NE0%10000m1011hPa53%
24-Jun-2024 06:00Clear Sky27°C2 mph, NW0%10000m1012hPa56%
24-Jun-2024 09:00Clear Sky25°C2 mph, SW9%10000m1012hPa62%
24-Jun-2024 12:00Light Rain26°C4 mph, W33%10000m1014hPa62%
24-Jun-2024 15:00Scattered Clouds33°C7 mph, NW50%10000m1014hPa42%
24-Jun-2024 18:00Scattered Clouds37°C9 mph, W29%10000m1012hPa30%
24-Jun-2024 21:00Overcast Clouds35°C7 mph, NW100%10000m1011hPa37%
25-Jun-2024 00:00Overcast Clouds33°C2 mph, NW94%10000m1011hPa43%
25-Jun-2024 03:00Scattered Clouds28°C2 mph, E46%10000m1012hPa60%
25-Jun-2024 06:00Scattered Clouds27°C0 mph, W48%10000m1012hPa65%
25-Jun-2024 09:00Light Rain24°C2 mph, W88%10000m1013hPa84%
25-Jun-2024 12:00Light Rain25°C4 mph, SW89%10000m1014hPa84%
25-Jun-2024 15:00Scattered Clouds33°C4 mph, W46%10000m1014hPa48%
25-Jun-2024 18:00Broken Clouds37°C7 mph, W72%10000m1012hPa33%
25-Jun-2024 21:00Overcast Clouds35°C4 mph, W99%10000m1011hPa37%
26-Jun-2024 00:00Overcast Clouds31°C4 mph, NW86%10000m1010hPa55%
26-Jun-2024 03:00Light Rain25°C2 mph, NW96%10000m1013hPa81%
26-Jun-2024 06:00Overcast Clouds25°C4 mph, SW98%10000m1013hPa84%
26-Jun-2024 09:00Light Rain23°C4 mph, S62%10000m1011hPa92%